Time;durP1;ratioP1;P1;durP2;ratioP2;P2;SDS_P1;SDS_P2;PMS_P1;PMS_P2;Temp;Humidity;BMP_temperature;BMP_pressure;BME280_temperature;BME280_humidity;BME280_pressure;Samples;Min_cycle;Max_cycle;Signal;HPM_P1;HPM_P2
2021/04/11 00:00:44;;;;;;;3.67;1.85;;;13.80;44.50;;;13.62;39.31;96960.91;4930999;29;20200;-52
2021/04/11 00:03:19;;;;;;;2.55;1.83;;;13.80;44.60;;;13.59;39.43;96958.66;4930075;29;20051;-51
2021/04/11 00:05:48;;;;;;;2.83;1.80;;;13.80;44.80;;;13.57;39.41;96958.84;4928772;29;20047;-50
2021/04/11 00:08:17;;;;;;;4.75;2.20;;;13.80;44.80;;;13.62;39.24;96952.88;4929739;29;20064;-49
2021/04/11 00:10:52;;;;;;;4.93;2.30;;;13.70;44.80;;;13.61;39.32;96961.09;4929134;29;20059;-52
2021/04/11 00:13:29;;;;;;;3.33;1.80;;;13.70;45.00;;;13.55;39.37;96952.03;4929327;29;20059;-51
2021/04/11 00:15:57;;;;;;;3.45;2.13;;;13.70;45.20;;;13.55;39.52;96955.53;4928855;29;20051;-52
2021/04/11 00:18:24;;;;;;;3.38;2.10;;;13.60;45.10;;;13.48;39.83;96956.53;4929899;29;20081;-52
2021/04/11 00:20:52;;;;;;;3.22;1.80;;;13.70;45.30;;;13.51;39.56;96948.09;4930140;29;20065;-51
2021/04/11 00:23:22;;;;;;;3.45;1.83;;;13.60;45.20;;;13.43;39.82;96957.09;4929789;29;20062;-51
2021/04/11 00:25:50;;;;;;;2.60;1.77;;;13.60;45.30;;;13.35;39.93;96951.91;4928728;29;20060;-51
2021/04/11 00:28:18;;;;;;;3.45;1.45;;;13.60;45.60;;;13.31;39.82;96950.66;4928840;29;20052;-52
2021/04/11 00:30:46;;;;;;;3.40;1.70;;;13.50;45.40;;;13.28;39.96;96949.16;4928927;29;20044;-53
2021/04/11 00:33:44;;;;;;;3.08;1.63;;;13.50;45.40;;;13.27;40.59;96944.00;4928849;29;20079;-50
2021/04/11 00:36:16;;;;;;;3.05;1.77;;;13.50;46.00;;;13.26;40.24;96939.66;4930456;29;20153;-51
2021/04/11 00:38:44;;;;;;;4.38;1.67;;;13.50;45.80;;;13.23;40.53;96942.75;4928948;29;20300;-51
2021/04/11 00:41:59;;;;;;;2.45;1.55;;;13.40;45.80;;;13.21;40.63;96934.94;4930153;29;20063;-54
2021/04/11 00:44:27;;;;;;;2.85;1.77;;;13.50;46.50;;;13.15;40.72;96935.72;4855538;29;20070;-52
2021/04/11 00:46:59;;;;;;;2.47;1.55;;;13.40;46.20;;;13.19;40.49;96936.97;4854300;29;20455;-49
2021/04/11 00:49:46;;;;;;;4.40;1.65;;;13.40;46.20;;;13.19;40.98;96943.13;4886451;29;20257;-51
2021/04/11 00:52:15;;;;;;;4.53;1.73;;;13.40;46.40;;;13.17;40.82;96939.00;4910071;29;20059;-52
2021/04/11 00:54:43;;;;;;;2.75;1.45;;;13.40;46.40;;;13.17;41.04;96929.13;4911675;29;20058;-52
2021/04/11 00:57:13;;;;;;;3.35;2.22;;;13.40;46.50;;;13.14;41.04;96934.88;4911485;29;20073;-51
2021/04/11 00:59:42;;;;;;;2.47;1.70;;;13.40;46.70;;;13.15;41.28;96917.00;4894672;29;20069;-52
2021/04/11 01:02:10;;;;;;;2.63;1.55;;;13.30;47.00;;;13.13;41.19;96927.88;4894376;29;20055;-53
2021/04/11 01:04:38;;;;;;;4.13;1.70;;;13.30;46.80;;;13.15;41.19;96919.69;4911384;29;20236;-49
2021/04/11 01:07:12;;;;;;;3.47;1.88;;;13.30;47.00;;;13.18;41.63;96917.44;4913214;29;20260;-53
2021/04/11 01:09:50;;;;;;;2.92;1.50;;;13.40;47.30;;;13.12;41.83;96912.84;4911306;29;20262;-54
2021/04/11 01:12:23;;;;;;;1.58;1.27;;;13.40;47.30;;;13.15;41.68;96912.47;4927928;29;20059;-53
2021/04/11 01:14:52;;;;;;;2.08;1.42;;;13.40;47.20;;;13.12;41.33;96907.50;4912450;29;20249;-49
2021/04/11 01:17:24;;;;;;;2.65;1.65;;;13.40;47.10;;;13.23;41.21;96905.34;4912102;29;20059;-53
2021/04/11 01:19:57;;;;;;;2.03;1.40;;;13.40;47.10;;;13.29;41.17;96897.34;4895548;29;20070;-52
2021/04/11 01:23:16;;;;;;;2.45;1.52;;;13.50;47.20;;;13.28;41.44;96898.38;4896142;29;20310;-50
2021/04/11 01:25:48;;;;;;;3.63;1.63;;;13.50;47.10;;;13.28;40.83;96892.19;4876466;29;20477;-52
2021/04/11 01:28:34;;;;;;;2.45;1.67;;;13.50;47.10;;;13.28;41.66;96892.19;4912159;29;20043;-52
2021/04/11 01:31:05;;;;;;;2.15;1.77;;;13.50;47.20;;;13.17;41.67;96896.25;4911862;29;20062;-52
2021/04/11 01:33:41;;;;;;;1.98;1.40;;;13.50;47.20;;;13.23;41.75;96898.13;4896703;29;20052;-53
2021/04/11 01:36:15;;;;;;;3.10;1.48;;;13.50;47.10;;;13.21;41.69;96886.81;4895408;29;20342;-53
2021/04/11 01:38:46;;;;;;;1.92;1.30;;;13.50;47.20;;;13.24;41.88;96891.78;4896445;29;20379;-50
2021/04/11 01:41:36;;;;;;;2.67;1.65;;;13.60;47.30;;;13.24;41.96;96889.09;4895402;29;20249;-52
2021/04/11 01:44:07;;;;;;;2.28;1.50;;;13.60;47.60;;;13.22;42.22;96890.31;4910654;29;20043;-50
2021/04/11 01:46:35;;;;;;;2.10;1.45;;;13.50;47.60;;;13.11;42.87;96889.03;4913488;29;20249;-50
2021/04/11 01:49:04;;;;;;;2.03;1.60;;;13.60;48.00;;;13.23;42.48;96891.97;4895435;29;20051;-52
2021/04/11 01:51:37;;;;;;;2.38;1.85;;;13.60;48.00;;;13.23;43.33;96886.63;4910834;29;20065;-53
2021/04/11 01:54:13;;;;;;;3.85;1.55;;;13.60;48.90;;;13.15;44.15;96885.75;4927789;29;20059;-49
2021/04/11 01:56:43;;;;;;;1.80;1.58;;;13.50;50.40;;;13.16;44.49;96886.56;4911020;29;20047;-52
2021/04/11 01:59:17;;;;;;;2.42;1.27;;;13.50;49.90;;;13.17;44.57;96889.06;4927889;29;20057;-51
2021/04/11 02:01:49;;;;;;;3.10;2.00;;;13.50;50.40;;;13.17;44.90;96881.03;4910569;29;20093;-54
2021/04/11 02:04:19;;;;;;;3.35;1.40;;;13.40;51.00;;;13.10;44.59;96885.50;4894624;29;20049;-49
2021/04/11 02:06:56;;;;;;;4.43;1.85;;;13.40;50.80;;;13.17;44.92;96888.22;4910347;29;20466;-49
2021/04/11 02:09:42;;;;;;;3.33;1.40;;;13.40;52.10;;;13.07;45.68;96885.09;4910859;29;20051;-54
2021/04/11 02:12:28;;;;;;;2.92;1.77;;;13.40;51.70;;;13.01;45.75;96897.38;4930350;29;20379;-50
2021/04/11 02:15:26;;;;;;;2.00;1.17;;;13.40;52.00;;;13.03;45.91;96891.81;4909844;29;20063;-53
2021/04/11 02:17:57;;;;;;;2.70;1.35;;;13.30;52.40;;;12.95;46.21;96884.78;4910003;29;20069;-52
2021/04/11 02:20:29;;;;;;;2.13;1.30;;;13.30;52.10;;;12.87;46.01;96895.63;4910170;29;20078;-51
2021/04/11 02:22:59;;;;;;;2.25;1.58;;;13.30;51.90;;;12.88;45.86;96894.59;4895322;29;20061;-54
2021/04/11 02:25:43;;;;;;;2.13;1.35;;;13.20;52.30;;;12.90;46.73;96890.72;4909003;29;20089;-50
2021/04/11 02:28:13;;;;;;;2.55;1.50;;;13.20;52.90;;;12.92;46.84;96879.84;4927265;29;20054;-53
2021/04/11 02:31:16;;;;;;;2.17;1.35;;;13.10;53.70;;;12.91;46.52;96880.84;4926521;29;20057;-51
2021/04/11 02:33:48;;;;;;;2.35;1.50;;;13.10;53.70;;;12.88;45.97;96879.41;4913002;29;20063;-52
2021/04/11 02:36:19;;;;;;;3.13;1.52;;;13.10;52.70;;;12.88;45.88;96876.72;4910175;29;20051;-53
2021/04/11 02:38:50;;;;;;;2.38;1.55;;;13.10;52.50;;;12.90;45.86;96874.69;4910462;29;20055;-54
2021/04/11 02:41:23;;;;;;;2.58;1.40;;;13.10;52.60;;;12.93;45.90;96868.97;4895374;29;20058;-52
2021/04/11 02:43:50;;;;;;;2.50;1.20;;;13.10;52.80;;;12.96;45.98;96865.88;4928621;29;20054;-51
2021/04/11 02:46:18;;;;;;;2.10;1.17;;;13.10;53.00;;;12.98;45.86;96868.38;4909950;29;20247;-54
2021/04/11 02:48:53;;;;;;;2.83;2.33;;;13.10;53.20;;;12.94;46.18;96865.25;4909266;29;20051;-54
2021/04/11 02:51:30;;;;;;;1.88;1.38;;;13.10;53.20;;;12.95;46.41;96861.59;4927595;29;20040;-51
2021/04/11 02:54:07;;;;;;;2.38;1.63;;;13.10;53.30;;;12.99;46.03;96854.00;4927248;29;20055;-54
2021/04/11 02:56:40;;;;;;;3.05;1.60;;;13.10;53.30;;;12.96;45.90;96859.72;4930499;29;20059;-54
2021/04/11 02:59:16;;;;;;;2.75;1.67;;;13.00;53.00;;;12.92;45.84;96855.78;4898787;29;20060;-50
2021/04/11 03:01:49;;;;;;;3.78;2.17;;;13.00;53.30;;;12.89;45.84;96857.03;4898256;29;20075;-52
2021/04/11 03:04:22;;;;;;;3.05;1.75;;;12.90;53.70;;;12.84;45.47;96854.09;4912510;29;20047;-53
2021/04/11 03:06:59;;;;;;;3.70;1.73;;;12.90;52.60;;;12.81;45.39;96857.16;4913449;29;20062;-50
2021/04/11 03:09:40;;;;;;;2.92;1.45;;;12.90;52.40;;;12.78;45.53;96853.03;4897368;29;20066;-50
2021/04/11 03:12:13;;;;;;;3.28;2.42;;;12.90;52.20;;;12.74;45.10;96850.94;4914327;29;20051;-54
2021/04/11 03:14:43;;;;;;;2.10;1.63;;;12.80;52.00;;;12.73;44.77;96846.63;4913766;29;20051;-53
2021/04/11 03:17:20;;;;;;;;;;;12.90;51.80;;;12.71;45.20;96848.66;4912100;29;20051;-54
2021/04/11 03:20:16;;;;;;;2.55;1.55;;;12.80;52.10;;;12.70;45.40;96852.38;4913066;29;19918;-54
2021/04/11 03:22:53;;;;;;;4.32;1.90;;;12.70;52.10;;;12.70;44.87;96839.81;4900242;29;20086;-51
2021/04/11 03:25:22;;;;;;;1.77;1.48;;;12.70;52.10;;;12.72;45.09;96835.13;4931978;29;20502;-53
2021/04/11 03:28:24;;;;;;;2.17;1.70;;;12.70;52.20;;;12.66;45.40;96837.72;4913452;29;20066;-53
2021/04/11 03:31:58;;;;;;;1.95;1.38;;;12.70;52.30;;;12.67;45.47;96834.03;4913588;29;20535;-51
2021/04/11 03:34:29;;;;;;;1.30;1.20;;;12.60;52.30;;;12.68;45.06;96839.19;4863045;29;20196;-53
2021/04/11 03:36:57;;;;;;;2.10;1.67;;;12.60;52.30;;;12.72;44.68;96845.78;4895222;29;20064;-54
2021/04/11 03:39:25;;;;;;;3.20;1.77;;;12.60;52.40;;;12.66;44.84;96841.25;4897337;29;20058;-53
2021/04/11 03:41:53;;;;;;;2.10;1.60;;;12.60;52.30;;;12.71;44.59;96846.81;4897119;29;20067;-52
2021/04/11 03:44:24;;;;;;;2.40;1.52;;;12.60;52.30;;;12.73;44.71;96844.75;4913057;29;20043;-50
2021/04/11 03:47:24;;;;;;;1.63;1.15;;;12.60;52.30;;;12.78;44.79;96846.88;4914440;29;20056;-51
2021/04/11 03:50:07;;;;;;;2.78;1.65;;;12.60;52.50;;;12.73;44.89;96849.28;4929079;29;20223;-50
2021/04/11 03:53:30;;;;;;;2.50;1.30;;;12.60;52.40;;;12.77;44.37;96851.38;4900397;29;20252;-51
2021/04/11 03:56:09;;;;;;;2.10;1.90;;;12.60;52.50;;;12.82;44.61;96842.78;4929830;29;20061;-51
2021/04/11 03:58:47;;;;;;;2.00;1.63;;;12.60;52.50;;;12.84;44.70;96850.63;4910541;29;20069;-53
2021/04/11 04:01:52;;;;;;;2.72;1.90;;;12.60;52.90;;;12.87;44.57;96851.06;4918743;29;20061;-53
2021/04/11 04:04:26;;;;;;;3.78;1.85;;;12.60;52.70;;;12.89;44.35;96858.84;4899200;29;20357;-51
2021/04/11 04:07:18;;;;;;;4.65;2.15;;;12.60;52.50;;;12.87;44.81;96856.41;4914677;29;20070;-54
2021/04/11 04:10:06;;;;;;;4.53;2.10;;;12.60;53.80;;;12.82;45.23;96863.34;4929356;29;20058;-50
2021/04/11 04:13:03;;;;;;;2.70;2.10;;;12.50;53.80;;;12.81;45.30;96862.50;4911632;29;20047;-53
2021/04/11 04:16:15;;;;;;;3.63;2.15;;;12.50;54.70;;;12.80;45.39;96864.34;4896846;29;20241;-54
2021/04/11 04:19:27;;;;;;;2.20;1.80;;;12.50;55.50;;;12.76;45.92;96862.25;4912634;29;20065;-52
2021/04/11 04:22:18;;;;;;;4.00;2.55;;;12.40;56.70;;;12.76;45.66;96865.75;4913588;29;20064;-52
2021/04/11 04:25:33;;;;;;;2.83;1.90;;;12.40;55.40;;;12.75;45.79;96864.09;4913018;29;20052;-54
2021/04/11 04:28:39;;;;;;;3.63;2.08;;;12.40;57.00;;;12.73;46.80;96860.78;4911636;29;20072;-52
2021/04/11 04:31:56;;;;;;;3.30;1.98;;;12.40;57.50;;;12.68;45.95;96868.56;4943450;23;20256;-52
2021/04/11 04:35:02;;;;;;;2.95;2.10;;;12.30;56.90;;;12.66;46.09;96870.63;4908792;29;20059;-49
2021/04/11 04:38:22;;;;;;;2.53;2.05;;;12.20;56.10;;;12.63;47.00;96872.84;4913961;29;20056;-51
2021/04/11 04:41:35;;;;;;;3.67;2.00;;;12.30;57.50;;;12.59;46.23;96865.19;4899173;29;20051;-49
2021/04/11 04:44:18;;;;;;;2.83;2.00;;;12.20;57.50;;;12.56;46.50;96867.44;4913903;29;20504;-52
2021/04/11 04:47:24;;;;;;;4.18;2.03;;;12.10;56.90;;;12.55;45.81;96863.94;4913574;29;20055;-50
2021/04/11 04:50:23;;;;;;;2.42;1.90;;;12.20;56.10;;;12.53;46.48;96870.50;4912115;29;20344;-48
2021/04/11 04:53:18;;;;;;;4.22;2.55;;;12.10;56.40;;;12.43;46.49;96860.16;4930438;29;20268;-51
2021/04/11 04:55:52;;;;;;;3.20;2.00;;;12.00;56.10;;;12.44;46.86;96868.97;4897423;29;20060;-49
2021/04/11 04:58:32;;;;;;;2.70;2.00;;;12.00;56.30;;;12.45;46.28;96871.47;4896411;29;20058;-48
2021/04/11 05:01:13;;;;;;;3.70;2.10;;;12.00;56.10;;;12.42;46.64;96869.16;4911982;29;20064;-49
2021/04/11 05:03:47;;;;;;;2.45;1.73;;;12.00;55.70;;;12.42;46.56;96866.50;4929101;29;20048;-50
2021/04/11 05:06:38;;;;;;;2.72;1.75;;;12.10;55.80;;;12.45;46.40;96871.47;4913775;29;20253;-52
2021/04/11 05:09:37;;;;;;;3.50;2.28;;;12.10;56.20;;;12.44;46.54;96864.44;4914798;29;20052;-49
2021/04/11 05:13:15;;;;;;;3.38;1.95;;;12.10;55.70;;;12.45;46.71;96873.31;4911619;29;20070;-49
2021/04/11 05:15:56;;;;;;;3.63;2.45;;;12.10;56.30;;;12.47;46.53;96877.44;4899917;29;20062;-51
2021/04/11 05:18:35;;;;;;;3.15;2.10;;;12.10;55.90;;;12.46;46.95;96874.94;4912238;29;20353;-51
2021/04/11 05:21:36;;;;;;;14.60;9.85;;;12.10;56.50;;;12.46;46.64;96873.09;4916555;29;20063;-53
2021/04/11 05:24:23;;;;;;;7.05;5.15;;;12.10;55.90;;;12.48;46.82;96868.38;4912277;29;20439;-53
2021/04/11 05:27:19;;;;;;;12.73;7.70;;;12.20;55.70;;;12.51;47.20;96873.34;4895028;29;20348;-52
2021/04/11 05:30:17;;;;;;;7.22;4.28;;;12.20;56.90;;;12.50;46.92;96881.56;4899666;29;20081;-51
2021/04/11 05:32:48;;;;;;;5.78;2.80;;;12.20;56.00;;;12.51;46.92;96889.38;4911327;29;20241;-50
2021/04/11 05:35:16;;;;;;;6.82;2.58;;;12.20;56.10;;;12.55;46.86;96879.13;4911853;29;20052;-49
2021/04/11 05:38:17;;;;;;;6.15;1.92;;;12.20;55.60;;;12.60;46.75;96885.56;4913527;29;20047;-51
2021/04/11 05:40:59;;;;;;;2.85;2.13;;;12.40;56.20;;;12.60;46.60;96884.72;4912245;29;20492;-52
2021/04/11 05:43:41;;;;;;;2.75;2.15;;;12.40;55.60;;;12.61;46.57;96887.19;4908845;29;20352;-49
2021/04/11 05:47:16;;;;;;;3.15;1.55;;;12.40;54.60;;;12.65;46.38;96882.31;4897012;29;20051;-51
2021/04/11 05:49:59;;;;;;;1.90;1.40;;;12.50;53.90;;;12.70;46.25;96869.22;4870226;29;20214;-51
2021/04/11 05:52:42;;;;;;;2.80;1.65;;;12.60;54.10;;;12.74;46.26;96875.81;4853860;29;20053;-50
2021/04/11 05:55:12;;;;;;;2.92;1.75;;;12.60;54.10;;;12.77;46.01;96874.59;4898468;29;20067;-52
2021/04/11 05:57:54;;;;;;;3.45;1.85;;;12.50;54.30;;;12.77;46.29;96870.06;4911610;29;20248;-50
2021/04/11 06:00:36;;;;;;;4.20;2.20;;;12.60;54.30;;;12.78;46.18;96863.72;4911100;29;20063;-51
2021/04/11 06:03:09;;;;;;;2.90;1.55;;;12.60;54.50;;;12.83;46.13;96864.97;4910200;29;20055;-52
2021/04/11 06:05:41;;;;;;;2.47;1.60;;;12.60;54.60;;;12.87;46.39;96866.22;4912281;29;20361;-49
2021/04/11 06:08:32;;;;;;;2.65;1.63;;;12.70;54.80;;;12.88;46.65;96875.91;4928306;29;20306;-49
2021/04/11 06:11:57;;;;;;;2.78;1.85;;;12.70;54.80;;;12.91;45.89;96872.84;4914172;29;20058;-51
2021/04/11 06:14:44;;;;;;;3.83;1.73;;;12.80;54.30;;;12.95;46.37;96863.41;4928230;29;20051;-53
2021/04/11 06:17:13;;;;;;;3.75;1.80;;;12.80;54.30;;;12.99;46.00;96867.38;4913349;29;20067;-53
2021/04/11 06:19:47;;;;;;;2.63;2.25;;;12.90;54.30;;;13.03;46.06;96870.44;4911581;29;20666;-51
2021/04/11 06:22:48;;;;;;;4.55;1.98;;;12.90;54.20;;;13.04;46.09;96862.25;4927366;29;20454;-51
2021/04/11 06:25:24;;;;;;;2.30;1.80;;;12.90;54.70;;;13.06;46.18;96860.19;4927912;29;20047;-50
2021/04/11 06:28:04;;;;;;;2.25;1.70;;;13.00;53.80;;;13.08;46.05;96862.69;4928290;29;20085;-47
2021/04/11 06:31:03;;;;;;;2.15;1.58;;;13.00;54.30;;;13.08;45.94;96858.16;4930557;29;20070;-49
2021/04/11 06:33:48;;;;;;;3.40;1.60;;;13.10;53.50;;;13.06;46.33;96859.38;4915562;29;20048;-51
2021/04/11 06:36:33;;;;;;;3.00;1.92;;;13.10;53.60;;;13.08;46.13;96860.00;4912858;29;20059;-50
2021/04/11 06:39:28;;;;;;;3.40;1.85;;;13.10;53.40;;;13.12;46.07;96854.06;4916187;29;20070;-51
2021/04/11 06:42:26;;;;;;;;;;;13.20;53.40;;;13.13;46.13;96849.56;4941746;29;20382;-54
2021/04/11 06:45:25;;;;;;;3.97;1.60;;;13.20;53.80;;;13.23;46.04;96846.53;4950059;29;19932;-50
2021/04/11 06:48:25;;;;;;;2.60;2.10;;;13.20;53.60;;;13.28;45.68;96846.75;4933317;29;20204;-52
2021/04/11 06:51:06;;;;;;;1.85;1.60;;;13.30;53.60;;;13.32;46.25;96845.38;4934565;29;20051;-50
2021/04/11 06:54:08;;;;;;;2.35;1.80;;;13.30;53.90;;;13.38;46.31;96849.94;4932208;29;20180;-51
2021/04/11 06:56:57;;;;;;;3.65;1.80;;;13.40;54.10;;;13.42;46.07;96851.19;4949962;29;20055;-53
2021/04/11 07:00:00;;;;;;;3.03;1.73;;;13.40;54.30;;;13.46;46.31;96859.63;4949179;29;20054;-52
2021/04/11 07:02:47;;;;;;;3.10;2.05;;;13.40;54.30;;;13.51;46.19;96858.03;4947019;29;20069;-50
2021/04/11 07:05:26;;;;;;;2.00;1.80;;;13.50;54.60;;;13.59;46.44;96854.34;4949059;29;20248;-50
2021/04/11 07:08:34;;;;;;;2.05;1.60;;;13.60;54.30;;;13.63;46.40;96854.75;4947741;29;20051;-49
2021/04/11 07:11:36;;;;;;;2.42;1.77;;;13.70;54.20;;;13.71;46.31;96849.25;4926860;29;20265;-53
2021/04/11 07:14:34;;;;;;;3.38;2.30;;;13.70;53.90;;;13.74;45.98;96848.84;4949138;29;20061;-50
2021/04/11 07:17:53;;;;;;;1.95;1.23;;;13.80;53.00;;;13.77;45.88;96848.44;4932141;29;20063;-48
2021/04/11 07:21:05;;;;;;;2.13;1.60;;;13.90;52.80;;;13.66;45.41;96859.72;4932703;29;20059;-50
2021/04/11 07:24:03;;;;;;;2.92;1.30;;;14.00;52.30;;;13.69;45.78;96848.63;4919347;29;20234;-50
2021/04/11 07:27:17;;;;;;;1.83;1.20;;;14.00;52.20;;;13.72;45.56;96854.38;4929524;29;20070;-53
2021/04/11 07:30:12;;;;;;;;;;;14.10;52.20;;;13.79;45.76;96855.22;4929508;29;20051;-51
2021/04/11 07:33:06;;;;;;;1.70;1.38;;;14.10;52.30;;;13.97;45.69;96859.19;4928353;29;19927;-51
2021/04/11 07:36:15;;;;;;;1.75;1.40;;;14.20;52.60;;;14.05;45.54;96858.19;4930318;29;20069;-51
2021/04/11 07:39:06;;;;;;;2.95;1.27;;;14.40;52.80;;;14.13;45.48;96860.66;4921911;29;20055;-53
2021/04/11 07:42:02;;;;;;;1.48;1.23;;;14.40;52.10;;;14.22;45.42;96864.00;4912849;29;20063;-52
2021/04/11 07:44:56;;;;;;;1.67;1.10;;;14.50;52.00;;;14.18;45.18;96858.22;4914145;29;20055;-53
2021/04/11 07:47:54;;;;;;;2.88;2.38;;;14.60;51.40;;;14.23;44.93;96860.28;4912788;29;20253;-52
2021/04/11 07:50:48;;;;;;;2.42;1.40;;;14.60;51.40;;;14.29;45.11;96860.31;4913050;29;20353;-51
2021/04/11 07:54:00;;;;;;;2.03;1.50;;;14.70;51.50;;;14.28;44.72;96866.69;4891216;29;20064;-54
2021/04/11 07:57:04;;;;;;;1.60;1.30;;;14.80;50.70;;;14.38;44.25;96867.13;4913566;29;20055;-53
2021/04/11 07:59:44;;;;;;;1.83;0.93;;;14.90;50.10;;;14.38;44.04;96868.94;4933552;29;20053;-51
2021/04/11 08:02:26;;;;;;;3.80;1.25;;;14.90;50.10;;;14.47;44.11;96850.84;4942433;29;20268;-50
2021/04/11 08:05:33;;;;;;;2.15;1.30;;;15.00;50.20;;;14.44;44.10;96859.28;4931796;29;20063;-52
2021/04/11 08:08:28;;;;;;;2.15;1.30;;;15.00;49.80;;;14.58;44.11;96850.28;4939968;29;20246;-53
2021/04/11 08:12:03;;;;;;;1.88;1.50;;;15.10;49.80;;;14.61;44.27;96857.06;4946153;29;20051;-52
2021/04/11 08:14:46;;;;;;;;;;;15.20;50.20;;;14.53;43.94;96861.56;4943643;29;20065;-55
2021/04/11 08:17:41;;;;;;;2.20;1.33;;;15.10;49.80;;;14.60;44.01;96863.44;4934781;29;19926;-55
2021/04/11 08:20:58;;;;;;;1.20;1.10;;;15.20;49.60;;;14.62;44.00;96859.53;4927468;29;20061;-55
2021/04/11 08:24:12;;;;;;;3.08;1.30;;;15.20;49.60;;;14.74;43.78;96865.91;4929865;29;20054;-54
2021/04/11 08:26:58;;;;;;;1.88;1.13;;;15.20;49.80;;;14.70;44.06;96863.88;4919388;29;20054;-55
2021/04/11 08:29:50;;;;;;;3.05;1.30;;;15.20;49.70;;;14.77;43.68;96859.31;4922786;29;20055;-50
2021/04/11 08:32:47;;;;;;;1.67;1.35;;;15.30;49.60;;;14.90;43.63;96866.53;4910116;29;20056;-55
2021/04/11 08:36:11;;;;;;;2.50;1.63;;;15.40;49.50;;;14.89;43.46;96862.22;4910388;29;20059;-53
2021/04/11 08:39:19;;;;;;;1.77;1.20;;;15.50;49.00;;;14.95;43.56;96859.53;4908707;29;20075;-56
2021/04/11 08:42:26;;;;;;;2.95;1.58;;;15.50;49.30;;;14.97;43.46;96870.03;4910671;29;20245;-56
2021/04/11 08:45:17;;;;;;;1.67;1.20;;;15.50;49.40;;;14.96;43.74;96863.00;4909632;29;20063;-58
2021/04/11 08:48:07;;;;;;;1.55;1.45;;;15.40;49.50;;;15.04;43.69;96867.34;4910611;29;20514;-57
2021/04/11 08:51:03;;;;;;;1.92;1.73;;;15.40;49.80;;;15.08;43.52;96866.72;4893981;29;20059;-58
2021/04/11 08:54:04;;;;;;;1.83;1.40;;;15.50;49.80;;;14.97;43.77;96864.69;4893744;29;20075;-58
2021/04/11 08:56:39;;;;;;;2.22;1.60;;;15.60;49.50;;;15.21;43.89;96863.19;4896504;29;20064;-57
2021/04/11 08:59:34;;;;;;;2.35;1.40;;;15.70;49.80;;;15.32;43.65;96859.84;4909655;29;20048;-59
2021/04/11 09:02:26;;;;;;;1.08;0.98;;;15.90;49.80;;;15.40;43.34;96866.84;4907288;29;20064;-59
2021/04/11 09:05:16;;;;;;;1.38;1.10;;;16.00;50.00;;;15.36;42.99;96858.41;4910257;29;20052;-58
2021/04/11 09:08:17;;;;;;;1.55;1.33;;;16.10;48.40;;;15.38;43.42;96863.56;4895432;29;20341;-56
2021/04/11 09:10:52;;;;;;;2.35;1.50;;;16.10;49.00;;;15.43;43.54;96862.91;4908502;29;20047;-53
2021/04/11 09:13:34;;;;;;;1.92;1.42;;;16.00;49.10;;;15.50;43.28;96869.09;4909906;29;20062;-56
2021/04/11 09:16:21;;;;;;;2.35;1.45;;;16.10;48.90;;;15.51;43.09;96863.53;4909017;29;20064;-54
2021/04/11 09:19:32;;;;;;;1.77;1.17;;;16.20;48.80;;;15.51;43.12;96860.84;4892669;29;20052;-53
2021/04/11 09:22:15;;;;;;;1.30;1.20;;;16.20;48.30;;;15.63;43.13;96860.19;4908199;29;20067;-54
2021/04/11 09:25:03;;;;;;;1.73;1.52;;;16.20;48.80;;;15.75;42.80;96859.31;4893334;29;20064;-55
2021/04/11 09:28:04;;;;;;;5.88;2.00;;;16.30;48.50;;;15.76;42.69;96857.47;4910035;29;20063;-54
2021/04/11 09:31:17;;;;;;;1.88;1.42;;;16.30;48.70;;;15.73;42.70;96853.34;4909262;29;20060;-53
2021/04/11 09:34:21;;;;;;;1.40;1.30;;;16.20;48.60;;;15.86;43.00;96848.97;4896259;29;20051;-55
2021/04/11 09:37:19;;;;;;;1.45;1.23;;;16.20;49.10;;;15.88;42.67;96857.63;4910444;29;20055;-52
2021/04/11 09:40:10;;;;;;;1.85;1.30;;;16.20;49.10;;;15.92;42.57;96856.97;4910060;29;20052;-55
2021/04/11 09:43:21;;;;;;;3.80;2.58;;;16.20;49.00;;;15.93;43.01;96855.91;4908974;29;20066;-53
2021/04/11 09:46:38;;;;;;;2.78;1.48;;;16.20;49.30;;;15.93;42.33;96852.41;4892803;29;20358;-55
2021/04/11 09:49:26;;;;;;;2.97;1.27;;;16.10;48.60;;;16.07;42.47;96843.28;4908861;29;20064;-53
2021/04/11 09:52:39;;;;;;;2.88;1.70;;;16.40;49.60;;;16.21;41.78;96845.88;4909278;29;20059;-53
2021/04/11 09:55:33;;;;;;;4.40;1.42;;;16.50;48.10;;;16.23;41.43;96843.81;4908708;29;20060;-52
2021/04/11 09:59:07;;;;;;;2.10;1.70;;;16.80;47.50;;;16.37;41.71;96839.97;4894573;29;20048;-55
2021/04/11 10:02:17;;;;;;;1.70;1.50;;;16.90;47.00;;;16.52;40.47;96843.16;4908629;29;20055;-55
2021/04/11 10:05:20;;;;;;;4.30;1.63;;;17.10;46.00;;;16.59;40.11;96840.41;4908185;29;20253;-54
2021/04/11 10:08:18;;;;;;;2.70;1.55;;;17.30;46.20;;;16.76;40.69;96840.69;4893062;29;20055;-51
2021/04/11 10:11:48;;;;;;;1.50;1.40;;;17.30;46.60;;;16.84;40.35;96832.38;4891983;29;20066;-55
2021/04/11 10:14:39;;;;;;;2.45;1.67;;;17.30;45.50;;;16.92;40.25;96829.44;4848774;29;20394;-50
2021/04/11 10:17:49;;;;;;;2.78;1.10;;;17.40;46.30;;;16.91;40.44;96830.47;4907287;29;20388;-55
2021/04/11 10:20:32;;;;;;;2.17;1.50;;;17.30;45.40;;;16.92;40.37;96829.44;4893059;29;20353;-54
2021/04/11 10:23:28;;;;;;;2.35;1.50;;;17.30;46.40;;;16.87;39.98;96834.63;4893791;29;20067;-57
2021/04/11 10:26:12;;;;;;;2.42;1.08;;;17.20;46.20;;;16.79;40.50;96829.53;4894553;29;20387;-51
2021/04/11 10:28:43;;;;;;;;;;;17.20;45.90;;;16.75;40.10;96831.00;4893359;29;20066;-55
2021/04/11 10:31:45;;;;;;;4.88;3.47;;;17.10;45.90;;;16.79;40.46;96832.22;4892362;29;19958;-53
2021/04/11 10:34:29;;;;;;;2.75;1.90;;;17.10;46.30;;;16.74;40.64;96830.16;4908996;29;20415;-56
2021/04/11 10:37:18;;;;;;;2.63;1.43;;;17.00;46.40;;;16.70;41.09;96842.41;4893788;29;20056;-50
2021/04/11 10:40:19;;;;;;;1.45;1.35;;;17.00;47.50;;;16.62;41.31;96845.38;4908793;29;20257;-52
2021/04/11 10:44:03;;;;;;;2.28;1.58;;;16.80;47.70;;;16.64;41.48;96837.91;4908401;29;20074;-55
2021/04/11 10:46:57;;;;;;;2.10;1.45;;;16.80;48.90;;;16.58;41.59;96841.47;4852928;29;20056;-51
2021/04/11 10:50:14;;;;;;;1.42;1.17;;;16.80;48.00;;;16.59;41.70;96840.41;4893986;29;20324;-51
2021/04/11 10:53:05;;;;;;;2.10;1.10;;;16.80;48.30;;;16.52;41.91;96842.34;4865941;29;20387;-54
2021/04/11 10:55:45;;;;;;;1.60;1.38;;;16.70;48.70;;;16.56;41.82;96848.13;4894186;29;20078;-49
2021/04/11 10:58:53;;;;;;;2.75;2.15;;;16.70;48.90;;;16.56;41.86;96838.19;4908499;29;20253;-52
2021/04/11 11:01:47;;;;;;;3.17;1.58;;;16.70;48.50;;;16.51;42.08;96843.38;4908295;29;20048;-52
2021/04/11 11:04:47;;;;;;;1.88;1.60;;;16.60;48.90;;;16.54;42.06;96845.66;4908872;29;20052;-51
2021/04/11 11:07:21;;;;;;;1.80;1.40;;;16.60;49.00;;;16.54;42.09;96849.16;4909102;29;20359;-51
2021/04/11 11:10:09;;;;;;;2.10;1.30;;;16.60;48.90;;;16.44;41.96;96847.97;4907162;29;20368;-55
2021/04/11 11:13:14;;;;;;;1.65;1.05;;;16.50;49.00;;;16.38;42.01;96843.47;4908392;29;20060;-52
2021/04/11 11:15:53;;;;;;;;;;;16.40;49.10;;;16.35;42.33;96842.06;4922570;29;20047;-51
2021/04/11 11:18:54;;;;;;;1.80;1.20;;;16.30;49.90;;;16.37;42.36;96844.53;4950957;29;19941;-52
2021/04/11 11:21:59;;;;;;;1.90;1.40;;;16.40;49.70;;;16.38;42.68;96847.00;4932844;29;20055;-50
2021/04/11 11:24:43;;;;;;;2.85;1.83;;;16.50;50.10;;;16.33;42.13;96844.97;4949176;29;20230;-49
2021/04/11 11:27:57;;;;;;;2.35;1.60;;;16.50;49.10;;;16.40;42.40;96844.94;4949399;29;20057;-52
2021/04/11 11:31:07;;;;;;;3.45;1.48;;;16.50;49.70;;;16.35;42.21;96844.75;4946946;29;20070;-52
2021/04/11 11:33:43;;;;;;;3.75;1.98;;;16.40;49.10;;;16.39;42.55;96845.94;4910492;29;20215;-52
2021/04/11 11:36:33;;;;;;;3.90;1.55;;;16.50;49.60;;;16.45;42.07;96836.19;4911425;29;20066;-51
2021/04/11 11:39:22;;;;;;;3.22;1.80;;;16.60;49.00;;;16.50;42.36;96841.75;4894790;29;20070;-50
2021/04/11 11:42:12;;;;;;;3.05;2.17;;;16.60;49.00;;;16.44;42.06;96847.97;4878911;29;20392;-53
2021/04/11 11:45:15;;;;;;;2.38;1.05;;;16.60;48.50;;;16.47;42.21;96847.56;4925159;29;20226;-51
2021/04/11 11:47:55;;;;;;;2.17;1.25;;;16.60;49.00;;;16.58;42.13;96841.47;4937602;29;20051;-50
2021/04/11 11:51:23;;;;;;;2.45;1.27;;;16.70;48.90;;;16.68;42.27;96841.78;4948852;29;20494;-52